Terminal Aerodrome Forecast
Issued by NWS

Home | Current Version | Previous Version | Text Only | Print | Product List | Glossary On
Versions: 1 2 3 4 5 6 7 8 9 10 11 12 13
297
FTUS46 KSTO 122328
TAFSMF
TAF
KSMF 122328Z 1300/1324 31004KT P6SM SCT250
     FM131200 VRB02KT 3SM BR SCT005
      TEMPO 1312/1316 1SM BR BKN005
     FM131800 34012KT P6SM SKC=

USA.gov is the U.S. government's official web portal to all federal, state and local government web resources and services.